sensor_id;sensor_type;location;lat;lon;timestamp;P1;durP1;ratioP1;P2;durP2;ratioP2
73697;SDS011;62004;42.566;23.164;2024-01-15T00:01:51;3.77;;;2.30;;
73697;SDS011;62004;42.566;23.164;2024-01-15T00:04:17;3.33;;;2.80;;
73697;SDS011;62004;42.566;23.164;2024-01-15T00:06:42;3.25;;;2.20;;
73697;SDS011;62004;42.566;23.164;2024-01-15T00:09:07;2.75;;;2.55;;
73697;SDS011;62004;42.566;23.164;2024-01-15T00:11:33;2.93;;;2.63;;
73697;SDS011;62004;42.566;23.164;2024-01-15T00:13:58;2.85;;;2.35;;
73697;SDS011;62004;42.566;23.164;2024-01-15T00:16:23;3.03;;;2.65;;
73697;SDS011;62004;42.566;23.164;2024-01-15T00:18:49;2.70;;;2.50;;
73697;SDS011;62004;42.566;23.164;2024-01-15T00:21:14;2.80;;;2.40;;
73697;SDS011;62004;42.566;23.164;2024-01-15T00:23:42;3.77;;;2.67;;
73697;SDS011;62004;42.566;23.164;2024-01-15T00:26:09;3.20;;;2.88;;
73697;SDS011;62004;42.566;23.164;2024-01-15T00:28:35;3.53;;;2.63;;
73697;SDS011;62004;42.566;23.164;2024-01-15T00:31:01;3.85;;;2.75;;
73697;SDS011;62004;42.566;23.164;2024-01-15T00:33:26;3.07;;;2.77;;
73697;SDS011;62004;42.566;23.164;2024-01-15T00:35:51;2.53;;;2.30;;
73697;SDS011;62004;42.566;23.164;2024-01-15T00:38:17;3.13;;;2.40;;
73697;SDS011;62004;42.566;23.164;2024-01-15T00:40:42;3.33;;;2.70;;
73697;SDS011;62004;42.566;23.164;2024-01-15T00:43:07;2.97;;;2.53;;
73697;SDS011;62004;42.566;23.164;2024-01-15T00:45:32;3.05;;;2.75;;
73697;SDS011;62004;42.566;23.164;2024-01-15T00:47:58;3.13;;;2.20;;
73697;SDS011;62004;42.566;23.164;2024-01-15T00:50:24;2.80;;;2.40;;
73697;SDS011;62004;42.566;23.164;2024-01-15T00:52:50;3.27;;;2.63;;
73697;SDS011;62004;42.566;23.164;2024-01-15T00:55:15;3.43;;;2.40;;
73697;SDS011;62004;42.566;23.164;2024-01-15T00:57:40;2.92;;;2.63;;
73697;SDS011;62004;42.566;23.164;2024-01-15T01:00:06;3.42;;;2.85;;
73697;SDS011;62004;42.566;23.164;2024-01-15T01:02:32;3.13;;;2.45;;
73697;SDS011;62004;42.566;23.164;2024-01-15T01:04:57;2.72;;;2.42;;
73697;SDS011;62004;42.566;23.164;2024-01-15T01:07:23;2.90;;;2.47;;
73697;SDS011;62004;42.566;23.164;2024-01-15T01:09:48;3.60;;;2.20;;
73697;SDS011;62004;42.566;23.164;2024-01-15T01:12:14;2.67;;;2.45;;
73697;SDS011;62004;42.566;23.164;2024-01-15T01:14:39;2.78;;;2.25;;
73697;SDS011;62004;42.566;23.164;2024-01-15T01:17:05;2.53;;;2.23;;
73697;SDS011;62004;42.566;23.164;2024-01-15T01:19:30;3.17;;;2.67;;
73697;SDS011;62004;42.566;23.164;2024-01-15T01:21:55;2.70;;;2.50;;
73697;SDS011;62004;42.566;23.164;2024-01-15T01:24:20;3.03;;;2.63;;
73697;SDS011;62004;42.566;23.164;2024-01-15T01:26:46;3.23;;;2.50;;
73697;SDS011;62004;42.566;23.164;2024-01-15T01:29:11;2.60;;;2.15;;
73697;SDS011;62004;42.566;23.164;2024-01-15T01:31:41;3.22;;;2.47;;
73697;SDS011;62004;42.566;23.164;2024-01-15T01:34:07;2.58;;;2.33;;
73697;SDS011;62004;42.566;23.164;2024-01-15T01:36:32;3.00;;;2.33;;
73697;SDS011;62004;42.566;23.164;2024-01-15T01:38:57;2.45;;;2.25;;
73697;SDS011;62004;42.566;23.164;2024-01-15T01:41:23;3.20;;;1.97;;
73697;SDS011;62004;42.566;23.164;2024-01-15T01:43:49;2.63;;;2.25;;
73697;SDS011;62004;42.566;23.164;2024-01-15T01:46:15;3.25;;;2.50;;
73697;SDS011;62004;42.566;23.164;2024-01-15T01:48:40;2.80;;;2.15;;
73697;SDS011;62004;42.566;23.164;2024-01-15T01:51:06;3.30;;;2.35;;
73697;SDS011;62004;42.566;23.164;2024-01-15T01:53:33;3.78;;;2.40;;
73697;SDS011;62004;42.566;23.164;2024-01-15T01:55:59;2.95;;;2.35;;
73697;SDS011;62004;42.566;23.164;2024-01-15T01:58:24;2.95;;;2.40;;
73697;SDS011;62004;42.566;23.164;2024-01-15T02:00:50;2.53;;;2.30;;
73697;SDS011;62004;42.566;23.164;2024-01-15T02:03:16;2.93;;;2.60;;
73697;SDS011;62004;42.566;23.164;2024-01-15T02:05:41;2.80;;;2.28;;
73697;SDS011;62004;42.566;23.164;2024-01-15T02:08:08;2.95;;;2.15;;
73697;SDS011;62004;42.566;23.164;2024-01-15T02:10:33;2.70;;;2.50;;
73697;SDS011;62004;42.566;23.164;2024-01-15T02:12:58;2.87;;;2.40;;
73697;SDS011;62004;42.566;23.164;2024-01-15T02:15:23;2.67;;;2.40;;
73697;SDS011;62004;42.566;23.164;2024-01-15T02:18:02;2.55;;;2.35;;
73697;SDS011;62004;42.566;23.164;2024-01-15T02:20:27;2.63;;;2.05;;
73697;SDS011;62004;42.566;23.164;2024-01-15T02:22:53;3.08;;;2.45;;
73697;SDS011;62004;42.566;23.164;2024-01-15T02:25:18;2.63;;;2.40;;
73697;SDS011;62004;42.566;23.164;2024-01-15T02:27:43;2.78;;;2.33;;
73697;SDS011;62004;42.566;23.164;2024-01-15T02:30:10;2.50;;;2.30;;
73697;SDS011;62004;42.566;23.164;2024-01-15T02:32:36;3.28;;;2.30;;
73697;SDS011;62004;42.566;23.164;2024-01-15T02:35:01;2.87;;;2.67;;
73697;SDS011;62004;42.566;23.164;2024-01-15T02:37:26;3.05;;;2.40;;
73697;SDS011;62004;42.566;23.164;2024-01-15T02:39:52;2.90;;;2.27;;
73697;SDS011;62004;42.566;23.164;2024-01-15T02:42:19;3.33;;;3.03;;
73697;SDS011;62004;42.566;23.164;2024-01-15T02:44:44;3.40;;;2.67;;
73697;SDS011;62004;42.566;23.164;2024-01-15T02:47:09;3.90;;;2.67;;
73697;SDS011;62004;42.566;23.164;2024-01-15T02:49:34;3.42;;;2.60;;
73697;SDS011;62004;42.566;23.164;2024-01-15T02:52:00;3.00;;;2.73;;
73697;SDS011;62004;42.566;23.164;2024-01-15T02:54:25;4.78;;;2.30;;
73697;SDS011;62004;42.566;23.164;2024-01-15T02:56:50;3.60;;;2.83;;
73697;SDS011;62004;42.566;23.164;2024-01-15T02:59:16;2.88;;;2.60;;
73697;SDS011;62004;42.566;23.164;2024-01-15T03:01:41;3.63;;;2.75;;
73697;SDS011;62004;42.566;23.164;2024-01-15T03:04:06;3.22;;;2.92;;
73697;SDS011;62004;42.566;23.164;2024-01-15T03:06:32;3.30;;;3.00;;
73697;SDS011;62004;42.566;23.164;2024-01-15T03:08:57;3.30;;;2.70;;
73697;SDS011;62004;42.566;23.164;2024-01-15T03:11:24;4.07;;;2.57;;
73697;SDS011;62004;42.566;23.164;2024-01-15T03:13:49;2.90;;;2.67;;
73697;SDS011;62004;42.566;23.164;2024-01-15T03:16:15;3.63;;;3.33;;
73697;SDS011;62004;42.566;23.164;2024-01-15T03:18:40;5.33;;;3.00;;
73697;SDS011;62004;42.566;23.164;2024-01-15T03:21:05;3.13;;;2.83;;
73697;SDS011;62004;42.566;23.164;2024-01-15T03:23:31;3.47;;;3.17;;
73697;SDS011;62004;42.566;23.164;2024-01-15T03:25:56;3.40;;;3.10;;
73697;SDS011;62004;42.566;23.164;2024-01-15T03:28:21;3.38;;;2.85;;
73697;SDS011;62004;42.566;23.164;2024-01-15T03:30:46;3.47;;;3.17;;
73697;SDS011;62004;42.566;23.164;2024-01-15T03:33:12;4.15;;;2.92;;
73697;SDS011;62004;42.566;23.164;2024-01-15T03:35:37;3.10;;;2.73;;
73697;SDS011;62004;42.566;23.164;2024-01-15T03:38:02;3.58;;;3.25;;
73697;SDS011;62004;42.566;23.164;2024-01-15T03:40:28;2.90;;;2.45;;
73697;SDS011;62004;42.566;23.164;2024-01-15T03:42:53;3.73;;;3.27;;
73697;SDS011;62004;42.566;23.164;2024-01-15T03:45:19;3.42;;;3.13;;
73697;SDS011;62004;42.566;23.164;2024-01-15T03:47:44;3.65;;;3.28;;
73697;SDS011;62004;42.566;23.164;2024-01-15T03:50:10;3.28;;;2.97;;
73697;SDS011;62004;42.566;23.164;2024-01-15T03:52:35;3.25;;;2.72;;
73697;SDS011;62004;42.566;23.164;2024-01-15T03:55:00;3.37;;;3.07;;
73697;SDS011;62004;42.566;23.164;2024-01-15T03:57:26;3.28;;;2.97;;
73697;SDS011;62004;42.566;23.164;2024-01-15T03:59:51;4.90;;;3.33;;
73697;SDS011;62004;42.566;23.164;2024-01-15T04:02:17;3.50;;;3.10;;
73697;SDS011;62004;42.566;23.164;2024-01-15T04:04:42;3.33;;;3.03;;
73697;SDS011;62004;42.566;23.164;2024-01-15T04:07:08;3.42;;;3.13;;
73697;SDS011;62004;42.566;23.164;2024-01-15T04:09:34;4.32;;;2.85;;
73697;SDS011;62004;42.566;23.164;2024-01-15T04:11:59;3.30;;;3.00;;
73697;SDS011;62004;42.566;23.164;2024-01-15T04:14:24;3.33;;;3.03;;
73697;SDS011;62004;42.566;23.164;2024-01-15T04:16:50;3.55;;;2.90;;
73697;SDS011;62004;42.566;23.164;2024-01-15T04:19:15;3.83;;;3.43;;
73697;SDS011;62004;42.566;23.164;2024-01-15T04:21:40;2.70;;;2.50;;
73697;SDS011;62004;42.566;23.164;2024-01-15T04:24:06;3.08;;;2.85;;
73697;SDS011;62004;42.566;23.164;2024-01-15T04:26:31;3.43;;;3.13;;
73697;SDS011;62004;42.566;23.164;2024-01-15T04:28:57;3.63;;;3.33;;
73697;SDS011;62004;42.566;23.164;2024-01-15T04:31:25;3.47;;;3.17;;
73697;SDS011;62004;42.566;23.164;2024-01-15T04:36:17;4.07;;;3.20;;
73697;SDS011;62004;42.566;23.164;2024-01-15T04:38:42;3.28;;;2.97;;
73697;SDS011;62004;42.566;23.164;2024-01-15T04:41:10;3.67;;;3.23;;
73697;SDS011;62004;42.566;23.164;2024-01-15T04:43:36;2.85;;;2.65;;
73697;SDS011;62004;42.566;23.164;2024-01-15T04:46:01;3.30;;;2.60;;
73697;SDS011;62004;42.566;23.164;2024-01-15T04:48:28;3.30;;;3.00;;
73697;SDS011;62004;42.566;23.164;2024-01-15T04:50:53;4.07;;;3.25;;
73697;SDS011;62004;42.566;23.164;2024-01-15T04:53:18;3.85;;;3.45;;
73697;SDS011;62004;42.566;23.164;2024-01-15T04:55:44;3.50;;;3.20;;
73697;SDS011;62004;42.566;23.164;2024-01-15T04:58:09;3.20;;;2.90;;
73697;SDS011;62004;42.566;23.164;2024-01-15T05:00:34;3.23;;;2.93;;
73697;SDS011;62004;42.566;23.164;2024-01-15T05:02:59;3.13;;;2.83;;
73697;SDS011;62004;42.566;23.164;2024-01-15T05:05:25;3.22;;;2.92;;
73697;SDS011;62004;42.566;23.164;2024-01-15T05:07:51;2.97;;;2.70;;
73697;SDS011;62004;42.566;23.164;2024-01-15T05:10:16;3.55;;;3.22;;
73697;SDS011;62004;42.566;23.164;2024-01-15T05:12:41;3.43;;;3.00;;
73697;SDS011;62004;42.566;23.164;2024-01-15T05:15:06;4.00;;;3.43;;
73697;SDS011;62004;42.566;23.164;2024-01-15T05:17:32;3.22;;;2.92;;
73697;SDS011;62004;42.566;23.164;2024-01-15T05:19:57;4.95;;;3.53;;
73697;SDS011;62004;42.566;23.164;2024-01-15T05:22:22;4.37;;;3.97;;
73697;SDS011;62004;42.566;23.164;2024-01-15T05:24:49;4.40;;;3.78;;
73697;SDS011;62004;42.566;23.164;2024-01-15T05:27:15;4.43;;;4.03;;
73697;SDS011;62004;42.566;23.164;2024-01-15T05:29:40;4.85;;;3.75;;
73697;SDS011;62004;42.566;23.164;2024-01-15T05:32:05;6.75;;;4.32;;
73697;SDS011;62004;42.566;23.164;2024-01-15T05:34:30;7.57;;;4.40;;
73697;SDS011;62004;42.566;23.164;2024-01-15T05:36:56;7.53;;;4.90;;
73697;SDS011;62004;42.566;23.164;2024-01-15T05:39:21;10.10;;;4.10;;
73697;SDS011;62004;42.566;23.164;2024-01-15T05:41:46;6.85;;;3.92;;
73697;SDS011;62004;42.566;23.164;2024-01-15T05:44:12;11.23;;;4.60;;
73697;SDS011;62004;42.566;23.164;2024-01-15T05:46:37;7.10;;;4.03;;
73697;SDS011;62004;42.566;23.164;2024-01-15T05:49:02;5.77;;;3.80;;
73697;SDS011;62004;42.566;23.164;2024-01-15T05:51:27;7.20;;;4.18;;
73697;SDS011;62004;42.566;23.164;2024-01-15T05:53:53;7.00;;;4.05;;
73697;SDS011;62004;42.566;23.164;2024-01-15T05:56:18;4.82;;;3.30;;
73697;SDS011;62004;42.566;23.164;2024-01-15T05:58:43;6.68;;;3.70;;
73697;SDS011;62004;42.566;23.164;2024-01-15T06:01:09;4.87;;;3.47;;
73697;SDS011;62004;42.566;23.164;2024-01-15T06:03:34;5.78;;;3.22;;
73697;SDS011;62004;42.566;23.164;2024-01-15T06:06:00;5.53;;;3.40;;
73697;SDS011;62004;42.566;23.164;2024-01-15T06:08:25;5.78;;;3.00;;
73697;SDS011;62004;42.566;23.164;2024-01-15T06:10:52;6.68;;;3.28;;
73697;SDS011;62004;42.566;23.164;2024-01-15T06:13:18;3.22;;;2.92;;
73697;SDS011;62004;42.566;23.164;2024-01-15T06:15:43;4.45;;;3.03;;
73697;SDS011;62004;42.566;23.164;2024-01-15T06:18:08;5.73;;;3.00;;
73697;SDS011;62004;42.566;23.164;2024-01-15T06:20:34;4.25;;;2.60;;
73697;SDS011;62004;42.566;23.164;2024-01-15T06:22:59;5.73;;;2.60;;
73697;SDS011;62004;42.566;23.164;2024-01-15T06:25:24;3.58;;;2.60;;
73697;SDS011;62004;42.566;23.164;2024-01-15T06:27:49;4.75;;;2.63;;
73697;SDS011;62004;42.566;23.164;2024-01-15T06:30:15;4.65;;;2.40;;
73697;SDS011;62004;42.566;23.164;2024-01-15T06:32:40;3.78;;;2.33;;
73697;SDS011;62004;42.566;23.164;2024-01-15T06:35:06;3.60;;;2.45;;
73697;SDS011;62004;42.566;23.164;2024-01-15T06:37:31;2.88;;;2.67;;
73697;SDS011;62004;42.566;23.164;2024-01-15T06:39:57;3.72;;;2.25;;
73697;SDS011;62004;42.566;23.164;2024-01-15T06:42:23;2.80;;;2.28;;
73697;SDS011;62004;42.566;23.164;2024-01-15T06:44:48;4.03;;;2.35;;
73697;SDS011;62004;42.566;23.164;2024-01-15T06:47:14;3.90;;;2.83;;
73697;SDS011;62004;42.566;23.164;2024-01-15T06:49:39;3.50;;;2.50;;
73697;SDS011;62004;42.566;23.164;2024-01-15T06:52:05;6.20;;;2.25;;
73697;SDS011;62004;42.566;23.164;2024-01-15T06:54:30;3.40;;;2.30;;
73697;SDS011;62004;42.566;23.164;2024-01-15T06:56:55;2.42;;;2.05;;
73697;SDS011;62004;42.566;23.164;2024-01-15T06:59:21;3.92;;;2.45;;
73697;SDS011;62004;42.566;23.164;2024-01-15T07:01:47;5.15;;;2.72;;
73697;SDS011;62004;42.566;23.164;2024-01-15T07:04:13;6.38;;;2.17;;
73697;SDS011;62004;42.566;23.164;2024-01-15T07:06:38;2.95;;;2.42;;
73697;SDS011;62004;42.566;23.164;2024-01-15T07:09:04;3.58;;;2.40;;
73697;SDS011;62004;42.566;23.164;2024-01-15T07:11:29;4.30;;;2.50;;
73697;SDS011;62004;42.566;23.164;2024-01-15T07:13:54;3.85;;;2.35;;
73697;SDS011;62004;42.566;23.164;2024-01-15T07:16:20;2.43;;;2.17;;
73697;SDS011;62004;42.566;23.164;2024-01-15T07:18:45;3.55;;;2.53;;
73697;SDS011;62004;42.566;23.164;2024-01-15T07:21:10;2.87;;;2.10;;
73697;SDS011;62004;42.566;23.164;2024-01-15T07:23:36;3.70;;;1.97;;
73697;SDS011;62004;42.566;23.164;2024-01-15T07:26:01;3.25;;;2.22;;
73697;SDS011;62004;42.566;23.164;2024-01-15T07:28:28;2.67;;;1.90;;
73697;SDS011;62004;42.566;23.164;2024-01-15T07:30:54;3.15;;;2.38;;
73697;SDS011;62004;42.566;23.164;2024-01-15T07:33:19;3.92;;;2.50;;
73697;SDS011;62004;42.566;23.164;2024-01-15T07:35:44;2.47;;;1.80;;
73697;SDS011;62004;42.566;23.164;2024-01-15T07:38:10;2.47;;;2.03;;
73697;SDS011;62004;42.566;23.164;2024-01-15T07:40:37;2.40;;;2.17;;
73697;SDS011;62004;42.566;23.164;2024-01-15T07:43:02;4.30;;;2.95;;
73697;SDS011;62004;42.566;23.164;2024-01-15T07:45:27;2.60;;;1.67;;
73697;SDS011;62004;42.566;23.164;2024-01-15T07:47:53;3.03;;;2.33;;
73697;SDS011;62004;42.566;23.164;2024-01-15T07:50:18;2.95;;;2.38;;
73697;SDS011;62004;42.566;23.164;2024-01-15T07:52:43;2.60;;;2.10;;
73697;SDS011;62004;42.566;23.164;2024-01-15T07:55:09;3.47;;;1.92;;
73697;SDS011;62004;42.566;23.164;2024-01-15T07:57:34;2.50;;;1.77;;
73697;SDS011;62004;42.566;23.164;2024-01-15T08:00:01;3.85;;;1.65;;
73697;SDS011;62004;42.566;23.164;2024-01-15T08:02:26;2.80;;;1.95;;
73697;SDS011;62004;42.566;23.164;2024-01-15T08:04:52;2.20;;;1.85;;
73697;SDS011;62004;42.566;23.164;2024-01-15T08:07:17;3.57;;;1.60;;
73697;SDS011;62004;42.566;23.164;2024-01-15T08:09:42;1.98;;;1.60;;
73697;SDS011;62004;42.566;23.164;2024-01-15T08:12:08;2.92;;;1.80;;
73697;SDS011;62004;42.566;23.164;2024-01-15T08:14:35;3.08;;;2.10;;
73697;SDS011;62004;42.566;23.164;2024-01-15T08:17:00;2.03;;;1.73;;
73697;SDS011;62004;42.566;23.164;2024-01-15T08:19:26;2.08;;;1.73;;
73697;SDS011;62004;42.566;23.164;2024-01-15T08:21:51;4.00;;;2.13;;
73697;SDS011;62004;42.566;23.164;2024-01-15T08:24:17;1.85;;;1.73;;
73697;SDS011;62004;42.566;23.164;2024-01-15T08:26:43;2.70;;;1.70;;
73697;SDS011;62004;42.566;23.164;2024-01-15T08:29:08;2.07;;;1.50;;
73697;SDS011;62004;42.566;23.164;2024-01-15T08:31:33;2.72;;;1.65;;
73697;SDS011;62004;42.566;23.164;2024-01-15T08:33:58;2.60;;;1.87;;
73697;SDS011;62004;42.566;23.164;2024-01-15T08:36:24;2.67;;;1.88;;
73697;SDS011;62004;42.566;23.164;2024-01-15T08:38:49;2.72;;;2.08;;
73697;SDS011;62004;42.566;23.164;2024-01-15T08:41:15;2.90;;;1.92;;
73697;SDS011;62004;42.566;23.164;2024-01-15T08:43:40;1.50;;;1.27;;
73697;SDS011;62004;42.566;23.164;2024-01-15T08:46:05;2.83;;;1.77;;
73697;SDS011;62004;42.566;23.164;2024-01-15T08:48:31;1.83;;;1.70;;
73697;SDS011;62004;42.566;23.164;2024-01-15T08:50:56;2.15;;;1.90;;
73697;SDS011;62004;42.566;23.164;2024-01-15T08:53:22;2.20;;;1.60;;
73697;SDS011;62004;42.566;23.164;2024-01-15T08:55:47;2.17;;;1.95;;
73697;SDS011;62004;42.566;23.164;2024-01-15T08:58:13;2.50;;;1.55;;
73697;SDS011;62004;42.566;23.164;2024-01-15T09:00:38;2.30;;;1.92;;
73697;SDS011;62004;42.566;23.164;2024-01-15T09:03:03;1.87;;;1.30;;
73697;SDS011;62004;42.566;23.164;2024-01-15T09:05:29;2.20;;;1.40;;
73697;SDS011;62004;42.566;23.164;2024-01-15T09:07:54;2.40;;;1.63;;
73697;SDS011;62004;42.566;23.164;2024-01-15T09:10:20;3.17;;;1.52;;
73697;SDS011;62004;42.566;23.164;2024-01-15T09:12:45;1.75;;;1.38;;
73697;SDS011;62004;42.566;23.164;2024-01-15T09:15:10;2.13;;;1.48;;
73697;SDS011;62004;42.566;23.164;2024-01-15T09:17:36;2.20;;;1.73;;
73697;SDS011;62004;42.566;23.164;2024-01-15T09:20:01;1.63;;;1.42;;
73697;SDS011;62004;42.566;23.164;2024-01-15T09:22:26;1.83;;;1.65;;
73697;SDS011;62004;42.566;23.164;2024-01-15T09:24:52;2.40;;;1.63;;
73697;SDS011;62004;42.566;23.164;2024-01-15T09:27:17;2.40;;;1.75;;
73697;SDS011;62004;42.566;23.164;2024-01-15T09:29:42;2.58;;;1.40;;
73697;SDS011;62004;42.566;23.164;2024-01-15T09:32:10;1.60;;;1.50;;
73697;SDS011;62004;42.566;23.164;2024-01-15T09:34:36;2.45;;;1.95;;
73697;SDS011;62004;42.566;23.164;2024-01-15T09:37:01;3.05;;;1.50;;
73697;SDS011;62004;42.566;23.164;2024-01-15T09:39:27;2.25;;;1.83;;
73697;SDS011;62004;42.566;23.164;2024-01-15T09:41:53;2.80;;;1.57;;
73697;SDS011;62004;42.566;23.164;2024-01-15T09:44:19;2.20;;;1.42;;
73697;SDS011;62004;42.566;23.164;2024-01-15T09:46:44;2.97;;;1.17;;
73697;SDS011;62004;42.566;23.164;2024-01-15T09:49:10;3.20;;;1.42;;
73697;SDS011;62004;42.566;23.164;2024-01-15T09:51:36;2.45;;;1.23;;
73697;SDS011;62004;42.566;23.164;2024-01-15T09:54:01;2.78;;;1.33;;
73697;SDS011;62004;42.566;23.164;2024-01-15T09:56:27;4.55;;;1.55;;
73697;SDS011;62004;42.566;23.164;2024-01-15T09:58:52;3.55;;;1.40;;
73697;SDS011;62004;42.566;23.164;2024-01-15T10:01:18;5.47;;;1.60;;
73697;SDS011;62004;42.566;23.164;2024-01-15T10:03:45;2.65;;;1.60;;
73697;SDS011;62004;42.566;23.164;2024-01-15T10:06:10;2.83;;;1.13;;
73697;SDS011;62004;42.566;23.164;2024-01-15T10:08:36;1.80;;;1.40;;
73697;SDS011;62004;42.566;23.164;2024-01-15T10:11:02;4.32;;;1.42;;
73697;SDS011;62004;42.566;23.164;2024-01-15T10:13:29;1.80;;;1.30;;
73697;SDS011;62004;42.566;23.164;2024-01-15T10:15:55;2.25;;;1.13;;
73697;SDS011;62004;42.566;23.164;2024-01-15T10:18:20;2.63;;;1.58;;
73697;SDS011;62004;42.566;23.164;2024-01-15T10:20:45;3.53;;;1.30;;
73697;SDS011;62004;42.566;23.164;2024-01-15T10:23:12;1.80;;;1.40;;
73697;SDS011;62004;42.566;23.164;2024-01-15T10:25:37;2.05;;;1.85;;
73697;SDS011;62004;42.566;23.164;2024-01-15T10:28:03;1.80;;;1.10;;
73697;SDS011;62004;42.566;23.164;2024-01-15T10:30:28;2.88;;;1.20;;
73697;SDS011;62004;42.566;23.164;2024-01-15T10:32:57;2.45;;;1.65;;
73697;SDS011;62004;42.566;23.164;2024-01-15T10:35:22;2.78;;;1.33;;
73697;SDS011;62004;42.566;23.164;2024-01-15T10:37:48;2.28;;;1.60;;
73697;SDS011;62004;42.566;23.164;2024-01-15T10:40:13;2.17;;;1.40;;
73697;SDS011;62004;42.566;23.164;2024-01-15T10:42:38;2.22;;;1.83;;
73697;SDS011;62004;42.566;23.164;2024-01-15T10:45:04;4.28;;;1.58;;
73697;SDS011;62004;42.566;23.164;2024-01-15T10:47:29;2.30;;;1.42;;
73697;SDS011;62004;42.566;23.164;2024-01-15T10:49:55;3.78;;;1.45;;
73697;SDS011;62004;42.566;23.164;2024-01-15T10:52:21;1.67;;;1.30;;
73697;SDS011;62004;42.566;23.164;2024-01-15T10:54:47;1.80;;;1.20;;
73697;SDS011;62004;42.566;23.164;2024-01-15T10:57:12;3.08;;;2.33;;
73697;SDS011;62004;42.566;23.164;2024-01-15T10:59:39;2.08;;;1.50;;
73697;SDS011;62004;42.566;23.164;2024-01-15T11:02:04;2.45;;;1.27;;
73697;SDS011;62004;42.566;23.164;2024-01-15T11:04:31;1.83;;;1.15;;
73697;SDS011;62004;42.566;23.164;2024-01-15T11:06:56;2.60;;;1.45;;
73697;SDS011;62004;42.566;23.164;2024-01-15T11:09:25;1.90;;;1.30;;
73697;SDS011;62004;42.566;23.164;2024-01-15T11:11:52;2.17;;;1.60;;
73697;SDS011;62004;42.566;23.164;2024-01-15T11:17:22;2.25;;;1.60;;
73697;SDS011;62004;42.566;23.164;2024-01-15T11:19:48;2.50;;;1.42;;
73697;SDS011;62004;42.566;23.164;2024-01-15T11:25:14;1.50;;;1.40;;
73697;SDS011;62004;42.566;23.164;2024-01-15T11:27:40;2.03;;;1.20;;
73697;SDS011;62004;42.566;23.164;2024-01-15T11:30:09;2.33;;;1.42;;
73697;SDS011;62004;42.566;23.164;2024-01-15T11:32:36;2.30;;;1.63;;
73697;SDS011;62004;42.566;23.164;2024-01-15T11:35:01;1.60;;;1.38;;
73697;SDS011;62004;42.566;23.164;2024-01-15T11:37:56;1.67;;;1.02;;
73697;SDS011;62004;42.566;23.164;2024-01-15T11:40:12;2.25;;;1.42;;
73697;SDS011;62004;42.566;23.164;2024-01-15T11:42:39;2.03;;;1.48;;
73697;SDS011;62004;42.566;23.164;2024-01-15T11:45:04;1.83;;;1.27;;
73697;SDS011;62004;42.566;23.164;2024-01-15T11:48:15;3.63;;;1.45;;
73697;SDS011;62004;42.566;23.164;2024-01-15T11:50:15;2.78;;;1.35;;
73697;SDS011;62004;42.566;23.164;2024-01-15T11:52:40;2.08;;;1.30;;
73697;SDS011;62004;42.566;23.164;2024-01-15T11:57:40;2.13;;;1.37;;
73697;SDS011;62004;42.566;23.164;2024-01-15T12:00:07;1.75;;;1.35;;
73697;SDS011;62004;42.566;23.164;2024-01-15T12:02:35;2.13;;;1.25;;
73697;SDS011;62004;42.566;23.164;2024-01-15T12:05:01;2.67;;;1.77;;
73697;SDS011;62004;42.566;23.164;2024-01-15T12:07:26;3.17;;;1.90;;
73697;SDS011;62004;42.566;23.164;2024-01-15T12:09:52;3.70;;;1.27;;
73697;SDS011;62004;42.566;23.164;2024-01-15T12:12:21;1.92;;;1.13;;
73697;SDS011;62004;42.566;23.164;2024-01-15T12:14:49;3.08;;;1.60;;
73697;SDS011;62004;42.566;23.164;2024-01-15T12:17:14;1.67;;;1.17;;
73697;SDS011;62004;42.566;23.164;2024-01-15T12:19:40;3.05;;;1.52;;
73697;SDS011;62004;42.566;23.164;2024-01-15T12:22:05;2.40;;;1.38;;
73697;SDS011;62004;42.566;23.164;2024-01-15T12:24:30;1.63;;;1.35;;
73697;SDS011;62004;42.566;23.164;2024-01-15T12:26:56;2.70;;;1.70;;
73697;SDS011;62004;42.566;23.164;2024-01-15T12:29:21;3.63;;;2.15;;
73697;SDS011;62004;42.566;23.164;2024-01-15T12:31:47;2.10;;;1.60;;
73697;SDS011;62004;42.566;23.164;2024-01-15T12:34:13;2.80;;;1.58;;
73697;SDS011;62004;42.566;23.164;2024-01-15T12:36:39;2.50;;;1.73;;
73697;SDS011;62004;42.566;23.164;2024-01-15T12:39:05;2.67;;;1.42;;
73697;SDS011;62004;42.566;23.164;2024-01-15T12:41:30;2.53;;;1.75;;
73697;SDS011;62004;42.566;23.164;2024-01-15T12:43:55;2.83;;;1.43;;
73697;SDS011;62004;42.566;23.164;2024-01-15T12:46:20;3.90;;;1.67;;
73697;SDS011;62004;42.566;23.164;2024-01-15T12:48:46;2.75;;;1.73;;
73697;SDS011;62004;42.566;23.164;2024-01-15T12:51:11;3.47;;;1.80;;
73697;SDS011;62004;42.566;23.164;2024-01-15T12:53:36;2.63;;;1.77;;
73697;SDS011;62004;42.566;23.164;2024-01-15T12:56:02;2.92;;;1.45;;
73697;SDS011;62004;42.566;23.164;2024-01-15T12:58:28;3.30;;;1.75;;
73697;SDS011;62004;42.566;23.164;2024-01-15T13:00:53;2.00;;;1.27;;
73697;SDS011;62004;42.566;23.164;2024-01-15T13:03:18;2.97;;;2.00;;
73697;SDS011;62004;42.566;23.164;2024-01-15T13:05:43;2.50;;;1.53;;
73697;SDS011;62004;42.566;23.164;2024-01-15T13:08:10;2.83;;;1.48;;
73697;SDS011;62004;42.566;23.164;2024-01-15T13:10:35;3.50;;;1.40;;
73697;SDS011;62004;42.566;23.164;2024-01-15T13:13:00;2.40;;;1.50;;
73697;SDS011;62004;42.566;23.164;2024-01-15T13:15:26;2.67;;;1.52;;
73697;SDS011;62004;42.566;23.164;2024-01-15T13:17:52;3.15;;;1.50;;
73697;SDS011;62004;42.566;23.164;2024-01-15T13:20:21;2.67;;;1.85;;
73697;SDS011;62004;42.566;23.164;2024-01-15T13:22:47;2.83;;;1.45;;
73697;SDS011;62004;42.566;23.164;2024-01-15T13:25:12;2.47;;;1.35;;
73697;SDS011;62004;42.566;23.164;2024-01-15T13:27:37;2.30;;;1.50;;
73697;SDS011;62004;42.566;23.164;2024-01-15T13:30:03;2.63;;;1.42;;
73697;SDS011;62004;42.566;23.164;2024-01-15T13:32:29;2.60;;;1.23;;
73697;SDS011;62004;42.566;23.164;2024-01-15T13:34:55;3.75;;;2.28;;
73697;SDS011;62004;42.566;23.164;2024-01-15T13:37:21;4.85;;;1.67;;
73697;SDS011;62004;42.566;23.164;2024-01-15T13:39:48;3.28;;;1.60;;
73697;SDS011;62004;42.566;23.164;2024-01-15T13:42:13;4.00;;;1.87;;
73697;SDS011;62004;42.566;23.164;2024-01-15T13:44:40;4.97;;;1.88;;
73697;SDS011;62004;42.566;23.164;2024-01-15T13:47:06;6.50;;;2.30;;
73697;SDS011;62004;42.566;23.164;2024-01-15T13:49:31;8.52;;;2.47;;
73697;SDS011;62004;42.566;23.164;2024-01-15T13:51:59;4.95;;;1.73;;
73697;SDS011;62004;42.566;23.164;2024-01-15T13:54:24;5.63;;;2.30;;
73697;SDS011;62004;42.566;23.164;2024-01-15T13:56:49;9.07;;;1.93;;
73697;SDS011;62004;42.566;23.164;2024-01-15T13:59:14;6.25;;;2.00;;
73697;SDS011;62004;42.566;23.164;2024-01-15T14:01:40;5.27;;;2.03;;
73697;SDS011;62004;42.566;23.164;2024-01-15T14:04:05;6.07;;;2.37;;
73697;SDS011;62004;42.566;23.164;2024-01-15T14:06:30;5.37;;;2.23;;
73697;SDS011;62004;42.566;23.164;2024-01-15T14:08:56;5.33;;;1.80;;
73697;SDS011;62004;42.566;23.164;2024-01-15T14:11:21;5.77;;;1.63;;
73697;SDS011;62004;42.566;23.164;2024-01-15T14:13:48;4.80;;;1.80;;
73697;SDS011;62004;42.566;23.164;2024-01-15T14:16:13;4.40;;;1.77;;
73697;SDS011;62004;42.566;23.164;2024-01-15T14:18:38;6.03;;;1.77;;
73697;SDS011;62004;42.566;23.164;2024-01-15T14:21:03;6.13;;;1.88;;
73697;SDS011;62004;42.566;23.164;2024-01-15T14:23:29;5.43;;;1.85;;
73697;SDS011;62004;42.566;23.164;2024-01-15T14:25:54;5.55;;;1.88;;
73697;SDS011;62004;42.566;23.164;2024-01-15T14:28:19;5.13;;;1.63;;
73697;SDS011;62004;42.566;23.164;2024-01-15T14:30:45;5.27;;;1.50;;
73697;SDS011;62004;42.566;23.164;2024-01-15T14:33:10;4.83;;;1.80;;
73697;SDS011;62004;42.566;23.164;2024-01-15T14:35:35;7.15;;;2.00;;